AirNav   Everest Fuels
 
 777 users online  

3MI6 Highland Heliport
Highland, Michigan, USA

GOING TO HIGHLAND?


FAA INFORMATION EFFECTIVE 18 JUNE 2020

Location

FAA Identifier: 3MI6
Lat/Long: 42-39-25.1090N 083-39-00.7990W
42-39.418483N 083-39.013317W
42.6569747,-83.6502219
(estimated)
Elevation: 1040 ft. / 317 m (estimated)
Variation: 05W (1985)
From city: 2 miles SE of HIGHLAND, MI
Time zone: UTC -4 (UTC -5 during Standard Time)
Zip code: 48357

Heliport Operations

Heliport use: Private use. Permission required prior to landing
Activation date: 07/1978
Control tower: no
ARTCC: CLEVELAND CENTER
FSS: LANSING FLIGHT SERVICE STATION
Attendance: UNATNDD
Segmented circle: no

Heliport Communications

WX ASOS at PTK (10 nm E): 125.025 (248-886-8551)
WX AWOS-3 at OZW (15 nm W): 118.875 (517-546-4450)
WX ASOS at FNT (19 nm N): 133.15 (810-342-7804)

Nearby radio navigation aids

VOR radial/distance  VOR name  Freq  Var
SVMr354/15.1SALEM VORTAC114.3003W
FNTr173/19.1FLINT VORTAC116.9006W
DXOr341/29.4DETROIT VOR/DME113.4006W
CRLr350/37.5CARLETON VOR/DME115.7003W

 
NDB name  Hdg/Dist  Freq  Var  ID
TECUMSEH022/38.823906WTCU - -.-. ..-
GROSSE ILE334/40.041907WRYS .-. -.-- ...

Heliport Services

Runway Information

Helipad H1

Dimensions: 50 x 50 ft. / 15 x 15 m
Surface: turf
Latitude: 42-39.418483N
Longitude: 083-39.013317W
Elevation: 1040.0 ft.
Traffic pattern: leftleft

Heliport Ownership and Management from official FAA records

Ownership: Privately-owned
Owner: BRUCE R. BAGLEY II
P.O. BOX 305
HIGHLAND, MI 48357
Phone 313-887-5303

Heliport Operational Statistics

Aircraft based on the field: 1
Helicopters: 1
    

Additional Remarks

FOR CD CTC DETROIT APCH AT 800-499-8181.

Instrument Procedures

There are no published instrument procedures at 3MI6.

Some nearby airports with instrument procedures:

Y47 - Oakland Southwest Airport (9 nm S)
KPTK - Oakland County International Airport (10 nm E)
9G2 - Price's Airport (10 nm NW)
KOZW - Livingston County Spencer J Hardy Airport (15 nm W)
KFNT - Bishop International Airport (19 nm N)
 
Loc | Ops | Rwys | IFR | FBO | Links
Com | Nav | Svcs | Stats | Notes
Area around 3MI6 (Highland Heliport)
 
Road maps at: MapQuest Bing Google
 
Aerial photo
No photo
 
Sectional chart

 
Airport distance calculator
Flying to Highland Heliport? Find the distance to fly.

From to 3MI6

Sunrise and sunset
Times for 14-Jul-2020
 Local
(UTC-4)
 Zulu
(UTC)
Morning civil twilight05:3709:37
Sunrise06:1110:11
Sunset21:1001:10
Evening civil twilight21:4401:44

Current date and time
Zulu (UTC)  15-Jul-2020 03:38:27
Local (UTC-4)  14-Jul-2020 23:38:27
 
METAR
KPTK 
10nm E 
150253Z 17003KT 10SM FEW200 SCT250 23/14 A3007 RMK AO2 SLP177 T02330139 51006 $
KOZW 
14nm W 
150315Z AUTO 15007KT 10SM CLR 22/17 A3006 RMK AO2 T02190168
KFNT 
19nm N 
150253Z 16005KT 10SM CLR 21/16 A3005 RMK AO2 SLP173 T02060156 56003 $
TAF
KPTK 
10nm E 
141727Z 1418/1518 21005KT P6SM SCT060 SCT250 TEMPO 1418/1421 BKN050 FM150000 15003KT P6SM SCT250 FM151400 19007KT P6SM SCT250
KFNT 
19nm N 
141727Z 1418/1518 19006KT P6SM SCT050 SCT250 FM150000 18004KT P6SM SCT250 FM151400 19007KT P6SM SCT250
NOTAMs
Click for the latest NOTAMs
NOTAMs are issued by the DoD/FAA and will open in a separate window not controlled by AirNav.

 

 
 

Would you like to see your business listed on this page?

 If your business provides an interesting product or service to pilots, flight crews, aircraft, or users of the Highland Heliport, you should consider listing it here.  To start the listing process, click on the button below
 
Add a business
 

Other Pages about Highland Heliport

Update a link
 
Copyright © AirNav, LLC. All rights reserved. Privacy Policy  Contact